AYMO/MAS METAR and TAF weather

Enter ICAO airport designator
Station Type Date Time Source
AYMO METAR 2018/06/11 02:00 UTC NOAA

AYMO 110200Z 23005KT 9999 FEW018CB SCT018 BKN140 30/24 Q1010


Station Type Date Time Source
AYMO Decoded METAR 2018/06/11 02:00 UTC NOAA

Manus Island/Momote, Papua New Guinea (AYMO) 02-03-43S 147-25-27E
Jun 10, 2018 - 10:00 PM EDT / 2018.06.11 0200 UTC
Wind: from the SW (230 degrees) at 6 MPH (5 KT):0
Visibility: greater than 7 mile(s):0
Sky conditions: mostly cloudy
Weather: Cumulonimbus clouds observed
Temperature: 86 F (30 C)
Heat index: 95.0 F (35.0 C):1
Dew Point: 75 F (24 C)
Relative Humidity: 70%
Pressure (altimeter): 29.83 in. Hg (1010 hPa)
ob: AYMO 110200Z 23005KT 9999 FEW018CB SCT018 BKN140 30/24 Q1010
cycle: 2

Station Type Date Time Source
AYMO TAF 2018/06/24 20:48 UTC NOAA

TAF TAF AYMO 241557Z 2420/2508 16012KT 9999 -SHRA SCT018 SCT030 BKNK120 INTER 2420/2508 4000 +SHRA BKN008 Q 1009 1011 1010 1008


Example: see airport list